sensor_id;sensor_type;location;lat;lon;timestamp;temperature;humidity
83019;DHT22;72834;40.104;18.336;2024-03-08T00:01:23;9.60;99.90
83019;DHT22;72834;40.104;18.336;2024-03-08T00:03:50;9.50;99.90
83019;DHT22;72834;40.104;18.336;2024-03-08T00:06:17;9.70;99.90
83019;DHT22;72834;40.104;18.336;2024-03-08T00:08:43;9.80;99.90
83019;DHT22;72834;40.104;18.336;2024-03-08T00:11:09;9.80;99.90
83019;DHT22;72834;40.104;18.336;2024-03-08T00:13:35;9.80;99.90
83019;DHT22;72834;40.104;18.336;2024-03-08T00:16:02;9.70;99.90
83019;DHT22;72834;40.104;18.336;2024-03-08T00:18:28;9.70;99.90
83019;DHT22;72834;40.104;18.336;2024-03-08T00:20:55;9.60;99.90
83019;DHT22;72834;40.104;18.336;2024-03-08T00:23:22;9.60;99.90
83019;DHT22;72834;40.104;18.336;2024-03-08T00:25:49;9.60;99.90
83019;DHT22;72834;40.104;18.336;2024-03-08T00:28:15;9.60;99.90
83019;DHT22;72834;40.104;18.336;2024-03-08T00:30:43;9.60;99.90
83019;DHT22;72834;40.104;18.336;2024-03-08T00:33:09;9.40;99.90
83019;DHT22;72834;40.104;18.336;2024-03-08T00:35:35;9.40;99.90
83019;DHT22;72834;40.104;18.336;2024-03-08T00:38:01;9.50;99.90
83019;DHT22;72834;40.104;18.336;2024-03-08T00:40:28;9.50;99.90
83019;DHT22;72834;40.104;18.336;2024-03-08T00:42:54;9.50;99.90
83019;DHT22;72834;40.104;18.336;2024-03-08T00:45:20;9.20;99.90
83019;DHT22;72834;40.104;18.336;2024-03-08T00:47:49;9.30;99.90
83019;DHT22;72834;40.104;18.336;2024-03-08T00:50:15;9.20;99.90
83019;DHT22;72834;40.104;18.336;2024-03-08T00:52:42;9.20;99.90
83019;DHT22;72834;40.104;18.336;2024-03-08T00:55:08;9.10;99.90
83019;DHT22;72834;40.104;18.336;2024-03-08T00:57:36;9.10;99.90
83019;DHT22;72834;40.104;18.336;2024-03-08T01:00:06;9.20;99.90
83019;DHT22;72834;40.104;18.336;2024-03-08T01:02:39;9.10;99.90
83019;DHT22;72834;40.104;18.336;2024-03-08T01:05:05;9.20;99.90
83019;DHT22;72834;40.104;18.336;2024-03-08T01:07:36;9.30;99.90
83019;DHT22;72834;40.104;18.336;2024-03-08T01:10:03;9.40;99.90
83019;DHT22;72834;40.104;18.336;2024-03-08T01:12:29;9.20;99.90
83019;DHT22;72834;40.104;18.336;2024-03-08T01:14:56;9.30;99.90
83019;DHT22;72834;40.104;18.336;2024-03-08T01:17:24;9.30;99.90
83019;DHT22;72834;40.104;18.336;2024-03-08T01:19:50;9.30;99.90
83019;DHT22;72834;40.104;18.336;2024-03-08T01:22:16;9.20;99.90
83019;DHT22;72834;40.104;18.336;2024-03-08T01:24:43;9.10;99.90
83019;DHT22;72834;40.104;18.336;2024-03-08T01:27:09;9.00;99.90
83019;DHT22;72834;40.104;18.336;2024-03-08T01:29:35;8.90;99.90
83019;DHT22;72834;40.104;18.336;2024-03-08T01:32:01;8.90;99.90
83019;DHT22;72834;40.104;18.336;2024-03-08T01:34:27;9.10;99.90
83019;DHT22;72834;40.104;18.336;2024-03-08T01:36:54;9.20;99.90
83019;DHT22;72834;40.104;18.336;2024-03-08T01:39:23;9.20;99.90
83019;DHT22;72834;40.104;18.336;2024-03-08T01:41:50;9.30;99.90
83019;DHT22;72834;40.104;18.336;2024-03-08T01:44:16;9.30;99.90
83019;DHT22;72834;40.104;18.336;2024-03-08T01:46:50;9.20;99.90
83019;DHT22;72834;40.104;18.336;2024-03-08T01:49:18;9.20;99.90
83019;DHT22;72834;40.104;18.336;2024-03-08T01:51:48;9.20;99.90
83019;DHT22;72834;40.104;18.336;2024-03-08T01:54:17;9.20;99.90
83019;DHT22;72834;40.104;18.336;2024-03-08T01:56:44;9.30;99.90
83019;DHT22;72834;40.104;18.336;2024-03-08T01:59:11;9.30;99.90
83019;DHT22;72834;40.104;18.336;2024-03-08T02:01:37;9.30;99.90
83019;DHT22;72834;40.104;18.336;2024-03-08T02:04:04;9.20;99.90
83019;DHT22;72834;40.104;18.336;2024-03-08T02:06:33;9.20;99.90
83019;DHT22;72834;40.104;18.336;2024-03-08T02:08:59;9.20;99.90
83019;DHT22;72834;40.104;18.336;2024-03-08T02:11:26;9.10;99.90
83019;DHT22;72834;40.104;18.336;2024-03-08T02:13:52;8.90;99.90
83019;DHT22;72834;40.104;18.336;2024-03-08T02:16:22;9.00;99.90
83019;DHT22;72834;40.104;18.336;2024-03-08T02:18:48;9.10;99.90
83019;DHT22;72834;40.104;18.336;2024-03-08T02:21:17;9.00;99.90
83019;DHT22;72834;40.104;18.336;2024-03-08T02:23:47;8.80;99.90
83019;DHT22;72834;40.104;18.336;2024-03-08T02:26:13;8.80;99.90
83019;DHT22;72834;40.104;18.336;2024-03-08T02:28:39;8.80;99.90
83019;DHT22;72834;40.104;18.336;2024-03-08T02:31:08;8.70;99.90
83019;DHT22;72834;40.104;18.336;2024-03-08T02:33:34;8.80;99.90
83019;DHT22;72834;40.104;18.336;2024-03-08T02:36:00;8.90;99.90
83019;DHT22;72834;40.104;18.336;2024-03-08T02:38:27;8.90;99.90
83019;DHT22;72834;40.104;18.336;2024-03-08T02:40:54;8.80;99.90
83019;DHT22;72834;40.104;18.336;2024-03-08T02:43:21;8.80;99.90
83019;DHT22;72834;40.104;18.336;2024-03-08T02:45:48;8.70;99.90
83019;DHT22;72834;40.104;18.336;2024-03-08T02:48:15;8.80;99.90
83019;DHT22;72834;40.104;18.336;2024-03-08T02:50:44;8.90;99.90
83019;DHT22;72834;40.104;18.336;2024-03-08T02:53:12;8.90;99.90
83019;DHT22;72834;40.104;18.336;2024-03-08T02:55:39;8.80;99.90
83019;DHT22;72834;40.104;18.336;2024-03-08T02:58:07;8.50;99.90
83019;DHT22;72834;40.104;18.336;2024-03-08T03:00:38;8.50;99.90
83019;DHT22;72834;40.104;18.336;2024-03-08T03:03:04;8.60;99.90
83019;DHT22;72834;40.104;18.336;2024-03-08T03:05:32;8.70;99.90
83019;DHT22;72834;40.104;18.336;2024-03-08T03:07:59;8.80;99.90
83019;DHT22;72834;40.104;18.336;2024-03-08T03:10:26;8.80;99.90
83019;DHT22;72834;40.104;18.336;2024-03-08T03:12:52;8.80;99.90
83019;DHT22;72834;40.104;18.336;2024-03-08T03:15:18;8.70;99.90
83019;DHT22;72834;40.104;18.336;2024-03-08T03:17:49;8.70;99.90
83019;DHT22;72834;40.104;18.336;2024-03-08T03:20:18;8.60;99.90
83019;DHT22;72834;40.104;18.336;2024-03-08T03:22:59;8.60;99.90
83019;DHT22;72834;40.104;18.336;2024-03-08T03:25:27;8.50;99.90
83019;DHT22;72834;40.104;18.336;2024-03-08T03:28:04;8.50;99.90
83019;DHT22;72834;40.104;18.336;2024-03-08T03:30:30;8.70;99.90
83019;DHT22;72834;40.104;18.336;2024-03-08T03:33:00;8.80;99.90
83019;DHT22;72834;40.104;18.336;2024-03-08T03:35:28;8.50;99.90
83019;DHT22;72834;40.104;18.336;2024-03-08T03:37:55;8.50;99.90
83019;DHT22;72834;40.104;18.336;2024-03-08T03:40:34;8.50;99.90
83019;DHT22;72834;40.104;18.336;2024-03-08T03:43:01;8.50;99.90
83019;DHT22;72834;40.104;18.336;2024-03-08T03:45:29;8.40;99.90
83019;DHT22;72834;40.104;18.336;2024-03-08T03:47:56;8.30;99.90
83019;DHT22;72834;40.104;18.336;2024-03-08T03:50:22;8.30;99.90
83019;DHT22;72834;40.104;18.336;2024-03-08T03:52:49;8.30;99.90
83019;DHT22;72834;40.104;18.336;2024-03-08T03:55:15;8.40;99.90
83019;DHT22;72834;40.104;18.336;2024-03-08T03:57:42;8.60;99.90
83019;DHT22;72834;40.104;18.336;2024-03-08T04:00:08;8.50;99.90
83019;DHT22;72834;40.104;18.336;2024-03-08T04:02:41;8.40;99.90
83019;DHT22;72834;40.104;18.336;2024-03-08T04:05:09;8.40;99.90
83019;DHT22;72834;40.104;18.336;2024-03-08T04:07:36;8.30;99.90
83019;DHT22;72834;40.104;18.336;2024-03-08T04:10:04;8.30;99.90
83019;DHT22;72834;40.104;18.336;2024-03-08T04:12:35;8.30;99.90
83019;DHT22;72834;40.104;18.336;2024-03-08T04:15:02;8.20;99.90
83019;DHT22;72834;40.104;18.336;2024-03-08T04:17:30;8.10;99.90
83019;DHT22;72834;40.104;18.336;2024-03-08T04:19:57;8.10;99.90
83019;DHT22;72834;40.104;18.336;2024-03-08T04:22:23;8.10;99.90
83019;DHT22;72834;40.104;18.336;2024-03-08T04:24:49;8.00;99.90
83019;DHT22;72834;40.104;18.336;2024-03-08T04:27:15;7.90;99.90
83019;DHT22;72834;40.104;18.336;2024-03-08T04:29:41;8.00;99.90
83019;DHT22;72834;40.104;18.336;2024-03-08T04:32:09;8.00;99.90
83019;DHT22;72834;40.104;18.336;2024-03-08T04:34:35;7.80;99.90
83019;DHT22;72834;40.104;18.336;2024-03-08T04:37:03;7.80;99.90
83019;DHT22;72834;40.104;18.336;2024-03-08T04:39:31;7.80;99.90
83019;DHT22;72834;40.104;18.336;2024-03-08T04:42:00;7.80;99.90
83019;DHT22;72834;40.104;18.336;2024-03-08T04:44:30;7.80;99.90
83019;DHT22;72834;40.104;18.336;2024-03-08T04:46:57;7.70;99.90
83019;DHT22;72834;40.104;18.336;2024-03-08T04:49:24;7.80;99.90
83019;DHT22;72834;40.104;18.336;2024-03-08T04:51:50;7.80;99.90
83019;DHT22;72834;40.104;18.336;2024-03-08T04:54:16;8.00;99.90
83019;DHT22;72834;40.104;18.336;2024-03-08T04:56:42;8.10;99.90
83019;DHT22;72834;40.104;18.336;2024-03-08T04:59:08;8.20;99.90
83019;DHT22;72834;40.104;18.336;2024-03-08T05:01:35;8.10;99.90
83019;DHT22;72834;40.104;18.336;2024-03-08T05:04:04;8.00;99.90
83019;DHT22;72834;40.104;18.336;2024-03-08T05:06:31;8.10;99.90
83019;DHT22;72834;40.104;18.336;2024-03-08T05:08:57;8.10;99.90
83019;DHT22;72834;40.104;18.336;2024-03-08T05:11:24;8.20;99.90
83019;DHT22;72834;40.104;18.336;2024-03-08T05:13:50;8.20;99.90
83019;DHT22;72834;40.104;18.336;2024-03-08T05:16:16;8.30;99.90
83019;DHT22;72834;40.104;18.336;2024-03-08T05:18:42;8.20;99.90
83019;DHT22;72834;40.104;18.336;2024-03-08T05:21:08;8.20;99.90
83019;DHT22;72834;40.104;18.336;2024-03-08T05:23:35;8.20;99.90
83019;DHT22;72834;40.104;18.336;2024-03-08T05:26:01;8.20;99.90
83019;DHT22;72834;40.104;18.336;2024-03-08T05:28:27;8.20;99.90
83019;DHT22;72834;40.104;18.336;2024-03-08T05:30:53;8.20;99.90
83019;DHT22;72834;40.104;18.336;2024-03-08T05:33:22;8.30;99.90
83019;DHT22;72834;40.104;18.336;2024-03-08T05:35:49;8.30;99.90
83019;DHT22;72834;40.104;18.336;2024-03-08T05:38:16;8.40;99.90
83019;DHT22;72834;40.104;18.336;2024-03-08T05:40:42;8.30;99.90
83019;DHT22;72834;40.104;18.336;2024-03-08T05:43:09;8.30;99.90
83019;DHT22;72834;40.104;18.336;2024-03-08T05:45:36;8.30;99.90
83019;DHT22;72834;40.104;18.336;2024-03-08T05:48:03;8.30;99.90
83019;DHT22;72834;40.104;18.336;2024-03-08T05:50:29;8.30;99.90
83019;DHT22;72834;40.104;18.336;2024-03-08T05:52:56;8.30;99.90
83019;DHT22;72834;40.104;18.336;2024-03-08T05:55:23;8.30;99.90
83019;DHT22;72834;40.104;18.336;2024-03-08T05:57:50;8.30;99.90
83019;DHT22;72834;40.104;18.336;2024-03-08T06:00:16;8.20;99.90
83019;DHT22;72834;40.104;18.336;2024-03-08T06:02:45;8.20;99.90
83019;DHT22;72834;40.104;18.336;2024-03-08T06:05:11;8.40;99.90
83019;DHT22;72834;40.104;18.336;2024-03-08T06:07:37;8.50;99.90
83019;DHT22;72834;40.104;18.336;2024-03-08T06:10:08;8.60;99.90
83019;DHT22;72834;40.104;18.336;2024-03-08T06:12:36;8.60;99.90
83019;DHT22;72834;40.104;18.336;2024-03-08T06:15:09;8.80;99.90
83019;DHT22;72834;40.104;18.336;2024-03-08T06:17:39;8.90;99.90
83019;DHT22;72834;40.104;18.336;2024-03-08T06:20:06;9.10;99.90
83019;DHT22;72834;40.104;18.336;2024-03-08T06:22:37;9.30;99.90
83019;DHT22;72834;40.104;18.336;2024-03-08T06:25:10;9.40;99.90
83019;DHT22;72834;40.104;18.336;2024-03-08T06:27:43;9.60;99.90
83019;DHT22;72834;40.104;18.336;2024-03-08T06:30:10;9.60;99.90
83019;DHT22;72834;40.104;18.336;2024-03-08T06:32:37;9.60;99.90
83019;DHT22;72834;40.104;18.336;2024-03-08T06:35:06;9.70;99.90
83019;DHT22;72834;40.104;18.336;2024-03-08T06:37:33;9.90;99.90
83019;DHT22;72834;40.104;18.336;2024-03-08T06:40:00;10.00;99.90
83019;DHT22;72834;40.104;18.336;2024-03-08T06:42:27;10.20;99.90
83019;DHT22;72834;40.104;18.336;2024-03-08T06:44:54;10.40;99.90
83019;DHT22;72834;40.104;18.336;2024-03-08T06:47:25;10.60;99.90
83019;DHT22;72834;40.104;18.336;2024-03-08T06:49:52;10.80;99.90
83019;DHT22;72834;40.104;18.336;2024-03-08T06:52:18;10.90;99.90
83019;DHT22;72834;40.104;18.336;2024-03-08T06:54:44;11.10;99.90
83019;DHT22;72834;40.104;18.336;2024-03-08T06:57:10;11.30;99.90
83019;DHT22;72834;40.104;18.336;2024-03-08T06:59:37;11.50;99.90
83019;DHT22;72834;40.104;18.336;2024-03-08T07:02:03;11.60;99.90
83019;DHT22;72834;40.104;18.336;2024-03-08T07:04:30;12.00;99.90
83019;DHT22;72834;40.104;18.336;2024-03-08T07:06:58;12.10;99.90
83019;DHT22;72834;40.104;18.336;2024-03-08T07:09:24;12.60;99.90
83019;DHT22;72834;40.104;18.336;2024-03-08T07:11:51;12.70;99.90
83019;DHT22;72834;40.104;18.336;2024-03-08T07:14:24;12.70;99.90
83019;DHT22;72834;40.104;18.336;2024-03-08T07:16:50;12.80;99.90
83019;DHT22;72834;40.104;18.336;2024-03-08T07:19:17;13.00;99.90
83019;DHT22;72834;40.104;18.336;2024-03-08T07:21:44;13.10;99.90
83019;DHT22;72834;40.104;18.336;2024-03-08T07:24:10;13.20;99.90
83019;DHT22;72834;40.104;18.336;2024-03-08T07:26:45;13.20;99.90
83019;DHT22;72834;40.104;18.336;2024-03-08T07:29:16;13.40;99.90
83019;DHT22;72834;40.104;18.336;2024-03-08T07:31:42;13.50;99.90
83019;DHT22;72834;40.104;18.336;2024-03-08T07:34:22;13.30;99.90
83019;DHT22;72834;40.104;18.336;2024-03-08T07:36:48;13.20;99.90
83019;DHT22;72834;40.104;18.336;2024-03-08T07:39:16;13.30;99.90
83019;DHT22;72834;40.104;18.336;2024-03-08T07:41:43;13.30;99.90
83019;DHT22;72834;40.104;18.336;2024-03-08T07:44:09;13.30;99.90
83019;DHT22;72834;40.104;18.336;2024-03-08T07:46:36;13.30;99.90
83019;DHT22;72834;40.104;18.336;2024-03-08T07:49:03;13.30;99.90
83019;DHT22;72834;40.104;18.336;2024-03-08T07:51:30;13.20;99.90
83019;DHT22;72834;40.104;18.336;2024-03-08T07:53:56;13.20;99.90
83019;DHT22;72834;40.104;18.336;2024-03-08T07:56:23;13.30;99.90
83019;DHT22;72834;40.104;18.336;2024-03-08T07:58:49;13.30;99.90
83019;DHT22;72834;40.104;18.336;2024-03-08T08:01:17;13.30;99.90
83019;DHT22;72834;40.104;18.336;2024-03-08T08:03:44;13.40;99.90
83019;DHT22;72834;40.104;18.336;2024-03-08T08:06:10;13.40;99.90
83019;DHT22;72834;40.104;18.336;2024-03-08T08:08:44;13.40;99.90
83019;DHT22;72834;40.104;18.336;2024-03-08T08:11:11;13.40;99.90
83019;DHT22;72834;40.104;18.336;2024-03-08T08:13:37;13.40;99.90
83019;DHT22;72834;40.104;18.336;2024-03-08T08:16:04;13.50;99.90
83019;DHT22;72834;40.104;18.336;2024-03-08T08:18:31;13.60;99.90
83019;DHT22;72834;40.104;18.336;2024-03-08T08:20:59;13.70;99.90
83019;DHT22;72834;40.104;18.336;2024-03-08T08:23:28;13.70;99.90
83019;DHT22;72834;40.104;18.336;2024-03-08T08:25:55;13.90;99.90
83019;DHT22;72834;40.104;18.336;2024-03-08T08:28:21;14.00;99.90
83019;DHT22;72834;40.104;18.336;2024-03-08T08:30:48;14.00;99.90
83019;DHT22;72834;40.104;18.336;2024-03-08T08:33:17;14.00;99.90
83019;DHT22;72834;40.104;18.336;2024-03-08T08:35:43;14.10;99.90
83019;DHT22;72834;40.104;18.336;2024-03-08T08:38:09;14.10;99.90
83019;DHT22;72834;40.104;18.336;2024-03-08T08:40:35;14.20;99.90
83019;DHT22;72834;40.104;18.336;2024-03-08T08:43:04;14.20;99.90
83019;DHT22;72834;40.104;18.336;2024-03-08T08:45:31;14.40;99.90
83019;DHT22;72834;40.104;18.336;2024-03-08T08:47:57;14.40;99.90
83019;DHT22;72834;40.104;18.336;2024-03-08T08:50:26;14.50;99.90
83019;DHT22;72834;40.104;18.336;2024-03-08T08:52:53;14.60;99.90
83019;DHT22;72834;40.104;18.336;2024-03-08T08:55:19;14.60;99.90
83019;DHT22;72834;40.104;18.336;2024-03-08T08:57:52;14.70;99.90
83019;DHT22;72834;40.104;18.336;2024-03-08T09:00:19;14.80;99.90
83019;DHT22;72834;40.104;18.336;2024-03-08T09:02:46;14.80;99.90
83019;DHT22;72834;40.104;18.336;2024-03-08T09:05:14;14.80;99.90
83019;DHT22;72834;40.104;18.336;2024-03-08T09:07:45;14.90;99.90
83019;DHT22;72834;40.104;18.336;2024-03-08T09:10:12;14.90;99.90
83019;DHT22;72834;40.104;18.336;2024-03-08T09:12:38;15.00;99.90
83019;DHT22;72834;40.104;18.336;2024-03-08T09:15:06;15.00;99.90
83019;DHT22;72834;40.104;18.336;2024-03-08T09:17:34;15.10;99.90
83019;DHT22;72834;40.104;18.336;2024-03-08T09:20:00;15.10;99.90
83019;DHT22;72834;40.104;18.336;2024-03-08T09:22:29;15.30;99.90
83019;DHT22;72834;40.104;18.336;2024-03-08T09:24:55;15.40;99.90
83019;DHT22;72834;40.104;18.336;2024-03-08T09:27:23;15.50;99.90
83019;DHT22;72834;40.104;18.336;2024-03-08T09:29:50;15.50;99.90
83019;DHT22;72834;40.104;18.336;2024-03-08T09:32:16;15.40;99.90
83019;DHT22;72834;40.104;18.336;2024-03-08T09:34:42;15.40;99.90
83019;DHT22;72834;40.104;18.336;2024-03-08T09:37:09;15.50;99.90
83019;DHT22;72834;40.104;18.336;2024-03-08T09:39:35;15.50;99.90
83019;DHT22;72834;40.104;18.336;2024-03-08T09:42:02;15.60;99.90
83019;DHT22;72834;40.104;18.336;2024-03-08T09:44:28;15.60;99.90
83019;DHT22;72834;40.104;18.336;2024-03-08T09:46:58;15.60;99.90
83019;DHT22;72834;40.104;18.336;2024-03-08T09:49:25;15.70;99.90
83019;DHT22;72834;40.104;18.336;2024-03-08T09:51:52;15.80;99.90
83019;DHT22;72834;40.104;18.336;2024-03-08T09:54:19;15.90;99.90
83019;DHT22;72834;40.104;18.336;2024-03-08T09:56:47;16.00;99.90
83019;DHT22;72834;40.104;18.336;2024-03-08T09:59:15;16.10;99.90
83019;DHT22;72834;40.104;18.336;2024-03-08T10:01:54;16.30;99.90
83019;DHT22;72834;40.104;18.336;2024-03-08T10:04:23;16.30;99.90
83019;DHT22;72834;40.104;18.336;2024-03-08T10:06:49;16.30;99.90
83019;DHT22;72834;40.104;18.336;2024-03-08T10:09:15;16.20;99.90
83019;DHT22;72834;40.104;18.336;2024-03-08T10:11:42;16.20;99.90
83019;DHT22;72834;40.104;18.336;2024-03-08T10:14:09;16.10;99.90
83019;DHT22;72834;40.104;18.336;2024-03-08T10:16:39;15.90;99.90
83019;DHT22;72834;40.104;18.336;2024-03-08T10:19:05;16.10;99.90
83019;DHT22;72834;40.104;18.336;2024-03-08T10:21:32;16.30;99.90
83019;DHT22;72834;40.104;18.336;2024-03-08T10:23:59;16.60;99.90
83019;DHT22;72834;40.104;18.336;2024-03-08T10:26:25;16.90;99.90
83019;DHT22;72834;40.104;18.336;2024-03-08T10:28:53;17.20;99.90
83019;DHT22;72834;40.104;18.336;2024-03-08T10:31:20;17.40;99.90
83019;DHT22;72834;40.104;18.336;2024-03-08T10:33:46;17.50;99.90
83019;DHT22;72834;40.104;18.336;2024-03-08T10:36:14;17.70;99.90
83019;DHT22;72834;40.104;18.336;2024-03-08T10:38:42;17.80;99.90
83019;DHT22;72834;40.104;18.336;2024-03-08T10:41:13;17.90;99.90
83019;DHT22;72834;40.104;18.336;2024-03-08T10:49:08;17.70;99.90
83019;DHT22;72834;40.104;18.336;2024-03-08T10:51:40;17.30;99.90
83019;DHT22;72834;40.104;18.336;2024-03-08T10:54:09;16.90;99.90
83019;DHT22;72834;40.104;18.336;2024-03-08T10:56:36;16.40;99.90
83019;DHT22;72834;40.104;18.336;2024-03-08T10:59:02;16.40;99.90
83019;DHT22;72834;40.104;18.336;2024-03-08T11:01:30;16.40;99.90
83019;DHT22;72834;40.104;18.336;2024-03-08T11:03:57;16.90;99.90
83019;DHT22;72834;40.104;18.336;2024-03-08T11:09:02;18.80;99.90
83019;DHT22;72834;40.104;18.336;2024-03-08T11:11:32;18.80;99.90
83019;DHT22;72834;40.104;18.336;2024-03-08T11:14:01;18.90;99.90
83019;DHT22;72834;40.104;18.336;2024-03-08T11:18:59;17.60;99.90
83019;DHT22;72834;40.104;18.336;2024-03-08T11:21:31;17.30;99.90
83019;DHT22;72834;40.104;18.336;2024-03-08T11:24:06;16.80;99.90
83019;DHT22;72834;40.104;18.336;2024-03-08T11:26:34;16.50;99.90
83019;DHT22;72834;40.104;18.336;2024-03-08T11:32:12;16.10;99.90
83019;DHT22;72834;40.104;18.336;2024-03-08T11:34:42;15.90;99.90
83019;DHT22;72834;40.104;18.336;2024-03-08T11:37:14;15.70;99.90
83019;DHT22;72834;40.104;18.336;2024-03-08T11:39:49;15.70;99.90
83019;DHT22;72834;40.104;18.336;2024-03-08T11:42:17;15.70;99.90
83019;DHT22;72834;40.104;18.336;2024-03-08T11:44:44;15.70;99.90
83019;DHT22;72834;40.104;18.336;2024-03-08T11:47:11;15.80;99.90
83019;DHT22;72834;40.104;18.336;2024-03-08T11:49:41;15.80;99.90
83019;DHT22;72834;40.104;18.336;2024-03-08T11:52:14;16.10;99.90
83019;DHT22;72834;40.104;18.336;2024-03-08T11:54:41;17.20;99.90
83019;DHT22;72834;40.104;18.336;2024-03-08T11:57:09;18.50;99.90
83019;DHT22;72834;40.104;18.336;2024-03-08T11:59:38;19.60;99.90
83019;DHT22;72834;40.104;18.336;2024-03-08T12:02:05;20.40;99.90
83019;DHT22;72834;40.104;18.336;2024-03-08T12:04:32;20.50;99.90
83019;DHT22;72834;40.104;18.336;2024-03-08T12:07:02;20.80;99.90
83019;DHT22;72834;40.104;18.336;2024-03-08T12:09:36;20.90;99.90
83019;DHT22;72834;40.104;18.336;2024-03-08T12:12:03;20.60;99.90
83019;DHT22;72834;40.104;18.336;2024-03-08T12:14:33;20.40;99.90
83019;DHT22;72834;40.104;18.336;2024-03-08T12:17:00;20.80;99.90
83019;DHT22;72834;40.104;18.336;2024-03-08T12:19:31;21.50;99.90
83019;DHT22;72834;40.104;18.336;2024-03-08T12:22:06;21.30;99.90
83019;DHT22;72834;40.104;18.336;2024-03-08T12:24:33;21.20;99.90
83019;DHT22;72834;40.104;18.336;2024-03-08T12:26:59;21.50;99.90
83019;DHT22;72834;40.104;18.336;2024-03-08T12:29:26;21.50;99.90
83019;DHT22;72834;40.104;18.336;2024-03-08T12:31:55;21.60;99.90
83019;DHT22;72834;40.104;18.336;2024-03-08T12:34:24;21.90;99.90
83019;DHT22;72834;40.104;18.336;2024-03-08T12:36:51;22.20;99.90
83019;DHT22;72834;40.104;18.336;2024-03-08T12:39:19;21.80;99.90
83019;DHT22;72834;40.104;18.336;2024-03-08T12:41:54;21.30;99.90
83019;DHT22;72834;40.104;18.336;2024-03-08T12:44:20;20.30;99.90
83019;DHT22;72834;40.104;18.336;2024-03-08T12:46:51;19.00;99.90
83019;DHT22;72834;40.104;18.336;2024-03-08T12:49:17;18.50;99.90
83019;DHT22;72834;40.104;18.336;2024-03-08T12:51:44;18.20;99.90
83019;DHT22;72834;40.104;18.336;2024-03-08T12:54:11;18.10;99.90
83019;DHT22;72834;40.104;18.336;2024-03-08T12:56:37;17.60;99.90
83019;DHT22;72834;40.104;18.336;2024-03-08T12:59:05;17.30;99.90
83019;DHT22;72834;40.104;18.336;2024-03-08T13:01:32;16.90;99.90
83019;DHT22;72834;40.104;18.336;2024-03-08T13:03:58;16.70;99.90
83019;DHT22;72834;40.104;18.336;2024-03-08T13:06:26;16.50;99.90
83019;DHT22;72834;40.104;18.336;2024-03-08T13:08:53;16.60;99.90
83019;DHT22;72834;40.104;18.336;2024-03-08T13:11:22;16.70;99.90
83019;DHT22;72834;40.104;18.336;2024-03-08T13:13:49;16.70;99.90
83019;DHT22;72834;40.104;18.336;2024-03-08T13:16:16;16.70;99.90
83019;DHT22;72834;40.104;18.336;2024-03-08T13:18:43;16.60;99.90
83019;DHT22;72834;40.104;18.336;2024-03-08T13:21:10;16.50;99.90
83019;DHT22;72834;40.104;18.336;2024-03-08T13:23:41;16.40;99.90
83019;DHT22;72834;40.104;18.336;2024-03-08T13:26:13;16.10;99.90
83019;DHT22;72834;40.104;18.336;2024-03-08T13:28:50;15.90;99.90
83019;DHT22;72834;40.104;18.336;2024-03-08T13:31:22;15.90;99.90
83019;DHT22;72834;40.104;18.336;2024-03-08T13:33:49;16.00;99.90
83019;DHT22;72834;40.104;18.336;2024-03-08T13:36:17;15.80;99.90
83019;DHT22;72834;40.104;18.336;2024-03-08T13:38:48;15.90;99.90
83019;DHT22;72834;40.104;18.336;2024-03-08T13:41:15;16.00;99.90
83019;DHT22;72834;40.104;18.336;2024-03-08T13:43:43;16.00;99.90
83019;DHT22;72834;40.104;18.336;2024-03-08T13:46:11;16.00;99.90
83019;DHT22;72834;40.104;18.336;2024-03-08T13:48:38;16.10;99.90
83019;DHT22;72834;40.104;18.336;2024-03-08T13:51:05;16.20;99.90
83019;DHT22;72834;40.104;18.336;2024-03-08T13:53:36;16.30;99.90
83019;DHT22;72834;40.104;18.336;2024-03-08T13:56:03;16.50;99.90
83019;DHT22;72834;40.104;18.336;2024-03-08T13:58:30;16.80;99.90
83019;DHT22;72834;40.104;18.336;2024-03-08T14:00:57;17.00;99.90
83019;DHT22;72834;40.104;18.336;2024-03-08T14:03:23;17.20;99.90
83019;DHT22;72834;40.104;18.336;2024-03-08T14:05:50;17.10;99.90
83019;DHT22;72834;40.104;18.336;2024-03-08T14:08:16;17.00;99.90
83019;DHT22;72834;40.104;18.336;2024-03-08T14:10:43;17.00;99.90
83019;DHT22;72834;40.104;18.336;2024-03-08T14:13:12;17.00;99.90
83019;DHT22;72834;40.104;18.336;2024-03-08T14:15:41;16.90;99.90
83019;DHT22;72834;40.104;18.336;2024-03-08T14:18:08;16.90;99.90
83019;DHT22;72834;40.104;18.336;2024-03-08T14:20:34;16.90;99.90
83019;DHT22;72834;40.104;18.336;2024-03-08T14:23:01;16.90;99.90
83019;DHT22;72834;40.104;18.336;2024-03-08T14:25:27;16.90;99.90
83019;DHT22;72834;40.104;18.336;2024-03-08T14:27:56;17.00;99.90
83019;DHT22;72834;40.104;18.336;2024-03-08T14:30:30;16.90;99.90
83019;DHT22;72834;40.104;18.336;2024-03-08T14:33:07;16.80;99.90
83019;DHT22;72834;40.104;18.336;2024-03-08T14:35:37;16.80;99.90
83019;DHT22;72834;40.104;18.336;2024-03-08T14:38:04;16.70;99.90
83019;DHT22;72834;40.104;18.336;2024-03-08T14:40:34;16.70;99.90
83019;DHT22;72834;40.104;18.336;2024-03-08T14:43:02;16.60;99.90
83019;DHT22;72834;40.104;18.336;2024-03-08T14:45:28;16.60;99.90
83019;DHT22;72834;40.104;18.336;2024-03-08T14:47:54;16.40;99.90
83019;DHT22;72834;40.104;18.336;2024-03-08T14:50:22;16.40;99.90
83019;DHT22;72834;40.104;18.336;2024-03-08T14:52:49;16.40;99.90
83019;DHT22;72834;40.104;18.336;2024-03-08T14:55:18;16.20;99.90
83019;DHT22;72834;40.104;18.336;2024-03-08T14:57:45;16.10;99.90
83019;DHT22;72834;40.104;18.336;2024-03-08T15:00:13;15.90;99.90
83019;DHT22;72834;40.104;18.336;2024-03-08T15:02:44;15.90;99.90
83019;DHT22;72834;40.104;18.336;2024-03-08T15:05:10;15.90;99.90
83019;DHT22;72834;40.104;18.336;2024-03-08T15:07:40;15.90;99.90
83019;DHT22;72834;40.104;18.336;2024-03-08T15:10:07;15.90;99.90
83019;DHT22;72834;40.104;18.336;2024-03-08T15:12:37;15.90;99.90
83019;DHT22;72834;40.104;18.336;2024-03-08T15:15:08;15.90;99.90
83019;DHT22;72834;40.104;18.336;2024-03-08T15:17:36;15.90;99.90
83019;DHT22;72834;40.104;18.336;2024-03-08T15:20:08;15.90;99.90
83019;DHT22;72834;40.104;18.336;2024-03-08T15:22:46;15.80;99.90
83019;DHT22;72834;40.104;18.336;2024-03-08T15:25:13;15.80;99.90
83019;DHT22;72834;40.104;18.336;2024-03-08T15:27:47;15.70;99.90
83019;DHT22;72834;40.104;18.336;2024-03-08T15:30:14;15.70;99.90
83019;DHT22;72834;40.104;18.336;2024-03-08T15:32:46;15.60;99.90
83019;DHT22;72834;40.104;18.336;2024-03-08T15:35:19;15.50;99.90
83019;DHT22;72834;40.104;18.336;2024-03-08T15:37:46;15.50;99.90
83019;DHT22;72834;40.104;18.336;2024-03-08T15:40:13;15.50;99.90